createdAt,value
2018-12-20T00:01:39.672Z,73.56
2018-12-20T00:04:10.433Z,73.95
2018-12-20T00:06:40.659Z,73.61
2018-12-20T00:09:10.594Z,76.68
2018-12-20T00:11:40.757Z,76.22
2018-12-20T00:14:11.197Z,72.59
2018-12-20T00:16:41.862Z,71.80
2018-12-20T00:19:11.739Z,72.42
2018-12-20T00:21:41.694Z,72.70
2018-12-20T00:24:12.028Z,73.00
2018-12-20T00:26:42.429Z,72.72
2018-12-20T00:29:12.452Z,72.46
2018-12-20T00:31:42.460Z,73.19
2018-12-20T00:34:12.600Z,72.44
2018-12-20T00:36:42.667Z,72.99
2018-12-20T00:39:12.794Z,73.30
2018-12-20T00:41:43.280Z,72.66
2018-12-20T00:44:13.530Z,72.62
2018-12-20T00:46:43.674Z,72.06
2018-12-20T00:49:13.694Z,72.39
2018-12-20T00:51:43.738Z,72.10
2018-12-20T00:54:14.304Z,71.79
2018-12-20T00:56:44.502Z,71.89
2018-12-20T00:59:14.575Z,72.14
2018-12-20T01:01:44.549Z,72.11
2018-12-20T01:04:15.722Z,72.07
2018-12-20T01:06:46.828Z,72.00
2018-12-20T01:09:18.351Z,71.66
2018-12-20T01:11:48.264Z,70.86
2018-12-20T01:14:18.273Z,71.39
2018-12-20T01:16:48.371Z,70.89
2018-12-20T01:19:18.647Z,70.80
2018-12-20T01:21:48.865Z,70.58
2018-12-20T01:24:19.019Z,70.52
2018-12-20T01:26:49.483Z,70.74
2018-12-20T01:29:19.384Z,69.79
2018-12-20T01:31:50.020Z,70.51
2018-12-20T01:34:20.394Z,70.18
2018-12-20T01:36:50.676Z,69.46
2018-12-20T01:39:20.821Z,70.12
2018-12-20T01:41:51.231Z,69.73
2018-12-20T01:44:21.603Z,70.06
2018-12-20T01:46:51.796Z,69.56
2018-12-20T01:49:22.754Z,69.79
2018-12-20T01:51:53.325Z,69.25
2018-12-20T01:54:24.246Z,68.47
2018-12-20T01:56:54.376Z,67.67
2018-12-20T01:59:24.621Z,68.00
2018-12-20T02:01:54.831Z,67.72
2018-12-20T02:04:25.608Z,68.17
2018-12-20T02:06:56.129Z,68.06
2018-12-20T02:09:26.424Z,68.11
2018-12-20T02:11:56.493Z,67.77
2018-12-20T02:14:26.683Z,68.37
2018-12-20T02:16:56.741Z,67.90
2018-12-20T02:19:26.756Z,67.79
2018-12-20T02:21:57.505Z,67.78
2018-12-20T02:24:27.699Z,66.91
2018-12-20T02:26:58.151Z,66.39
2018-12-20T02:29:28.577Z,66.80
2018-12-20T02:32:01.587Z,66.95
2018-12-20T02:34:40.325Z,66.60
2018-12-20T02:37:10.807Z,67.09
2018-12-20T02:39:41.576Z,66.57
2018-12-20T02:42:11.636Z,66.62
2018-12-20T02:44:42.146Z,66.67
2018-12-20T02:47:12.443Z,66.23
2018-12-20T02:49:42.367Z,66.67
2018-12-20T02:52:12.775Z,65.77
2018-12-20T02:54:42.955Z,66.42
2018-12-20T02:57:13.813Z,65.72
2018-12-20T02:59:43.869Z,65.77
2018-12-20T03:02:14.301Z,65.98
2018-12-20T03:04:44.496Z,66.15
2018-12-20T03:07:16.068Z,66.39
2018-12-20T03:09:46.522Z,66.49
2018-12-20T03:12:16.612Z,66.91
2018-12-20T03:14:46.570Z,66.96
2018-12-20T03:17:17.057Z,66.46
2018-12-20T03:19:47.631Z,66.73
2018-12-20T03:22:17.919Z,67.11
2018-12-20T03:24:48.366Z,67.00
2018-12-20T03:27:18.959Z,67.45
2018-12-20T03:29:49.480Z,67.27
2018-12-20T03:32:19.756Z,67.24
2018-12-20T03:34:49.745Z,67.36
2018-12-20T03:37:21.126Z,67.67
2018-12-20T03:39:51.582Z,68.08
2018-12-20T03:42:22.456Z,67.10
2018-12-20T03:44:53.248Z,67.87
2018-12-20T03:47:23.519Z,67.79
2018-12-20T03:49:53.468Z,68.28
2018-12-20T03:52:23.552Z,68.14
2018-12-20T03:54:53.988Z,68.31
2018-12-20T03:57:25.620Z,67.39
2018-12-20T03:59:55.691Z,67.66
2018-12-20T04:02:26.407Z,67.64
2018-12-20T04:04:56.766Z,67.49
2018-12-20T04:07:26.762Z,67.66
2018-12-20T04:09:56.820Z,67.87
2018-12-20T04:12:27.136Z,67.97
2018-12-20T04:14:58.584Z,67.46
2018-12-20T04:17:30.220Z,67.35
2018-12-20T04:20:01.169Z,67.62
2018-12-20T04:22:31.741Z,67.80
2018-12-20T04:25:02.335Z,68.06
2018-12-20T04:27:32.693Z,67.85
2018-12-20T04:30:02.607Z,67.61
2018-12-20T04:32:32.874Z,67.18
2018-12-20T04:35:03.228Z,67.89
2018-12-20T04:37:33.492Z,67.27
2018-12-20T04:40:03.637Z,67.60
2018-12-20T04:42:33.829Z,67.43
2018-12-20T04:45:04.695Z,67.35
2018-12-20T04:47:36.004Z,67.19
2018-12-20T04:50:06.985Z,67.91
2018-12-20T04:52:37.304Z,67.31
2018-12-20T04:55:07.346Z,67.77
2018-12-20T04:57:37.538Z,67.54
2018-12-20T05:00:08.216Z,67.94
2018-12-20T05:02:38.429Z,68.20
2018-12-20T05:05:09.292Z,68.28
2018-12-20T05:07:39.195Z,68.18
2018-12-20T05:10:09.589Z,68.74
2018-12-20T05:12:39.975Z,68.51
2018-12-20T05:15:10.565Z,68.47
2018-12-20T05:17:41.303Z,69.14
2018-12-20T05:20:11.664Z,68.72
2018-12-20T05:22:42.197Z,68.95
2018-12-20T05:25:12.493Z,68.89
2018-12-20T05:27:42.451Z,68.71
2018-12-20T05:30:12.621Z,69.03
2018-12-20T05:32:42.938Z,68.66
2018-12-20T05:35:13.394Z,68.79
2018-12-20T05:37:44.022Z,69.35
2018-12-20T05:40:14.653Z,68.91
2018-12-20T05:42:45.046Z,68.85
2018-12-20T05:45:15.335Z,69.28
2018-12-20T05:47:45.467Z,69.04
2018-12-20T05:50:15.612Z,69.25
2018-12-20T05:52:45.596Z,68.83
2018-12-20T05:55:15.519Z,69.24
2018-12-20T05:57:45.617Z,69.27
2018-12-20T06:00:16.824Z,68.72
2018-12-20T06:02:46.872Z,68.90
2018-12-20T06:05:17.506Z,69.17
2018-12-20T06:07:47.781Z,69.18
2018-12-20T06:10:18.428Z,68.65
2018-12-20T06:12:57.222Z,69.54
2018-12-20T06:15:27.465Z,69.60
2018-12-20T06:17:57.658Z,69.21
2018-12-20T06:20:28.452Z,69.06
2018-12-20T06:22:59.658Z,69.29
2018-12-20T06:25:29.596Z,69.37
2018-12-20T06:27:59.534Z,69.70
2018-12-20T06:30:29.723Z,69.47
2018-12-20T06:32:59.631Z,69.86
2018-12-20T06:35:29.581Z,70.27
2018-12-20T06:38:00.087Z,70.16
2018-12-20T06:40:30.431Z,69.70
2018-12-20T06:43:00.679Z,69.99
2018-12-20T06:45:30.502Z,69.69
2018-12-20T06:48:00.820Z,69.92
2018-12-20T06:50:30.883Z,69.77
2018-12-20T06:55:46.563Z,70.53
2018-12-20T06:58:16.960Z,71.02
2018-12-20T07:00:47.125Z,70.86
2018-12-20T07:03:17.422Z,71.50
2018-12-20T07:05:47.367Z,71.43
2018-12-20T07:08:17.279Z,71.48
2018-12-20T07:10:47.713Z,71.50
2018-12-20T07:13:17.503Z,71.11
2018-12-20T07:15:53.449Z,71.44
2018-12-20T07:18:23.219Z,71.19
2018-12-20T07:20:53.441Z,70.77
2018-12-20T07:23:24.959Z,71.10
2018-12-20T07:25:55.084Z,71.03
2018-12-20T07:28:25.272Z,70.97
2018-12-20T07:30:55.372Z,71.04
2018-12-20T07:33:25.549Z,71.57
2018-12-20T07:35:55.603Z,71.49
2018-12-20T07:38:25.508Z,71.50
2018-12-20T07:40:55.408Z,71.67
2018-12-20T07:43:25.488Z,71.61
2018-12-20T07:45:55.263Z,71.43
2018-12-20T07:48:32.099Z,71.69
2018-12-20T07:50:57.665Z,71.72
2018-12-20T07:53:27.639Z,71.61
2018-12-20T07:55:57.587Z,72.04
2018-12-20T07:58:27.500Z,72.43
2018-12-20T08:00:57.318Z,71.93
2018-12-20T08:03:27.379Z,71.97
2018-12-20T08:05:57.620Z,71.32
2018-12-20T08:08:27.637Z,72.07
2018-12-20T08:10:57.678Z,72.25
2018-12-20T08:13:27.776Z,71.81
2018-12-20T08:15:57.792Z,72.55
2018-12-20T08:18:35.230Z,72.61
2018-12-20T08:21:05.183Z,71.69
2018-12-20T08:23:35.365Z,71.62
2018-12-20T08:26:05.572Z,72.14
2018-12-20T08:28:35.619Z,72.32
2018-12-20T08:31:05.495Z,72.16
2018-12-20T08:33:35.695Z,71.76
2018-12-20T08:36:06.479Z,71.58
2018-12-20T08:38:36.413Z,71.50
2018-12-20T08:41:06.463Z,71.70
2018-12-20T08:43:36.537Z,71.52
2018-12-20T08:46:06.654Z,71.62
2018-12-20T08:48:36.975Z,72.06
2018-12-20T08:51:07.363Z,71.86
2018-12-20T08:53:37.277Z,71.58
2018-12-20T08:56:07.516Z,72.02
2018-12-20T08:58:37.477Z,71.96
2018-12-20T09:01:07.298Z,71.68
2018-12-20T09:03:38.057Z,71.84
2018-12-20T09:06:08.303Z,71.51
2018-12-20T09:08:38.594Z,71.40
2018-12-20T09:11:08.534Z,71.36
2018-12-20T09:13:38.593Z,71.68
2018-12-20T09:16:08.737Z,71.58
2018-12-20T09:18:39.916Z,71.75
2018-12-20T09:21:10.130Z,71.19
2018-12-20T09:23:40.404Z,71.89
2018-12-20T09:26:10.517Z,71.85
2018-12-20T09:28:40.449Z,71.82
2018-12-20T09:31:10.440Z,72.17
2018-12-20T09:33:40.529Z,71.99
2018-12-20T09:36:10.514Z,72.37
2018-12-20T09:38:40.735Z,71.51
2018-12-20T09:41:11.496Z,72.36
2018-12-20T09:43:41.645Z,72.11
2018-12-20T09:46:11.549Z,71.55
2018-12-20T09:48:41.565Z,71.37
2018-12-20T09:51:18.845Z,71.97
2018-12-20T09:53:49.695Z,71.19
2018-12-20T09:56:19.836Z,70.74
2018-12-20T09:58:49.706Z,71.72
2018-12-20T10:01:19.797Z,71.48
2018-12-20T10:03:49.734Z,71.45
2018-12-20T10:06:22.915Z,71.28
2018-12-20T10:08:53.372Z,71.14
2018-12-20T10:11:23.763Z,71.06
2018-12-20T10:13:53.837Z,70.95
2018-12-20T10:16:23.981Z,70.80
2018-12-20T10:18:54.085Z,70.85
2018-12-20T10:21:24.781Z,71.00
2018-12-20T10:23:54.695Z,71.53
2018-12-20T10:26:24.591Z,71.25
2018-12-20T10:28:54.636Z,71.53
2018-12-20T10:31:24.592Z,70.91
2018-12-20T10:33:54.563Z,71.17
2018-12-20T10:36:24.596Z,70.85
2018-12-20T10:38:54.553Z,71.78
2018-12-20T10:41:24.666Z,70.74
2018-12-20T10:43:54.675Z,71.15
2018-12-20T10:46:24.560Z,70.19
2018-12-20T10:48:54.777Z,69.97
2018-12-20T10:51:24.812Z,70.56
2018-12-20T10:54:10.902Z,70.25
2018-12-20T10:56:42.806Z,71.04
2018-12-20T10:59:12.668Z,70.58
2018-12-20T11:01:50.569Z,70.64
2018-12-20T11:04:25.515Z,70.05
2018-12-20T11:07:00.248Z,69.85
2018-12-20T11:09:35.213Z,70.46
2018-12-20T11:12:09.230Z,70.48
2018-12-20T11:14:39.493Z,70.37
2018-12-20T11:17:09.659Z,69.80
2018-12-20T11:19:39.730Z,69.85
2018-12-20T11:22:09.882Z,70.20
2018-12-20T11:24:40.457Z,69.57
2018-12-20T11:27:18.829Z,69.58
2018-12-20T11:29:48.799Z,69.53
2018-12-20T11:32:18.723Z,69.77
2018-12-20T11:34:48.735Z,69.60
2018-12-20T11:37:19.139Z,69.64
2018-12-20T11:39:49.276Z,70.07
2018-12-20T11:42:19.509Z,70.17
2018-12-20T11:44:49.560Z,69.84
2018-12-20T11:47:24.597Z,69.64
2018-12-20T11:49:54.642Z,69.14
2018-12-20T11:52:24.686Z,69.64
2018-12-20T11:54:54.731Z,69.77
2018-12-20T11:57:24.683Z,69.28
2018-12-20T11:59:55.267Z,69.48
2018-12-20T12:02:26.016Z,69.38
2018-12-20T12:04:56.133Z,69.65
2018-12-20T12:07:26.559Z,69.29
2018-12-20T12:09:56.542Z,69.36
2018-12-20T12:12:26.590Z,69.06
2018-12-20T12:14:56.777Z,68.41
2018-12-20T12:17:26.664Z,68.92
2018-12-20T12:19:56.604Z,68.61
2018-12-20T12:22:26.671Z,69.16
2018-12-20T12:24:56.649Z,69.37
2018-12-20T12:27:26.579Z,68.48
2018-12-20T12:29:56.576Z,69.96
2018-12-20T12:32:26.673Z,70.01
2018-12-20T12:34:56.784Z,69.50
2018-12-20T12:37:26.720Z,69.86
2018-12-20T12:39:56.734Z,69.58
2018-12-20T12:42:26.899Z,69.70
2018-12-20T12:44:57.249Z,69.55
2018-12-20T12:47:32.314Z,69.92
2018-12-20T12:50:02.789Z,69.84
2018-12-20T12:52:32.731Z,69.79
2018-12-20T12:55:02.727Z,69.46
2018-12-20T12:57:33.266Z,69.27
2018-12-20T13:00:03.467Z,68.91
2018-12-20T13:02:33.633Z,70.01
2018-12-20T13:05:03.676Z,70.22
2018-12-20T13:07:33.855Z,69.77
2018-12-20T13:10:04.737Z,70.48
2018-12-20T13:12:34.819Z,70.48
2018-12-20T13:15:05.473Z,70.68
2018-12-20T13:17:35.812Z,69.95
2018-12-20T13:20:07.785Z,70.48
2018-12-20T13:22:38.030Z,69.98
2018-12-20T13:25:09.340Z,70.64
2018-12-20T13:27:39.683Z,70.27
2018-12-20T13:30:12.291Z,69.96
2018-12-20T13:32:42.305Z,70.61
2018-12-20T13:35:13.256Z,70.62
2018-12-20T13:37:43.451Z,71.10
2018-12-20T13:40:13.580Z,70.78
2018-12-20T13:42:43.629Z,71.01
2018-12-20T13:45:13.629Z,70.57
2018-12-20T13:47:43.589Z,70.99
2018-12-20T13:50:13.816Z,71.23
2018-12-20T13:52:43.849Z,71.01
2018-12-20T13:55:13.908Z,70.60
2018-12-20T13:57:44.220Z,71.22
2018-12-20T14:00:16.639Z,71.00
2018-12-20T14:02:46.795Z,71.43
2018-12-20T14:05:17.554Z,71.47
2018-12-20T14:07:47.965Z,71.45
2018-12-20T14:10:18.277Z,71.51
2018-12-20T14:12:48.888Z,71.47
2018-12-20T14:15:19.133Z,71.45
2018-12-20T14:17:49.532Z,71.50
2018-12-20T14:20:19.599Z,71.86
2018-12-20T14:22:49.703Z,72.30
2018-12-20T14:25:19.608Z,71.80
2018-12-20T14:27:49.499Z,72.98
2018-12-20T14:30:19.457Z,72.74
2018-12-20T14:32:49.642Z,72.73
2018-12-20T14:35:19.950Z,72.79
2018-12-20T14:37:50.253Z,72.19
2018-12-20T14:40:20.372Z,73.10
2018-12-20T14:42:50.428Z,73.17
2018-12-20T14:45:20.643Z,73.17
2018-12-20T14:47:50.753Z,72.94
2018-12-20T14:50:20.768Z,73.89
2018-12-20T14:52:51.099Z,73.98
2018-12-20T14:55:21.634Z,73.45
2018-12-20T14:57:52.846Z,73.59
2018-12-20T15:00:22.839Z,74.15
2018-12-20T15:02:53.153Z,73.64
2018-12-20T15:05:23.764Z,74.08
2018-12-20T15:07:53.885Z,74.29
2018-12-20T15:10:31.865Z,74.30
2018-12-20T15:13:01.742Z,73.64
2018-12-20T15:15:31.694Z,74.15
2018-12-20T15:18:01.646Z,74.49
2018-12-20T15:20:40.235Z,74.50
2018-12-20T15:23:04.442Z,75.40
2018-12-20T15:25:34.626Z,75.02
2018-12-20T15:28:04.882Z,74.80
2018-12-20T15:30:34.991Z,74.49
2018-12-20T15:33:07.698Z,74.89
2018-12-20T15:35:37.911Z,75.40
2018-12-20T15:38:08.725Z,74.83
2018-12-20T15:40:39.684Z,75.28
2018-12-20T15:43:09.560Z,75.36
2018-12-20T15:45:39.506Z,75.03
2018-12-20T15:48:09.629Z,75.62
2018-12-20T15:50:40.469Z,75.09
2018-12-20T15:53:11.418Z,75.83
2018-12-20T15:55:41.593Z,75.24
2018-12-20T15:58:12.611Z,75.83
2018-12-20T16:00:43.375Z,75.80
2018-12-20T16:03:13.384Z,75.71
2018-12-20T16:05:43.536Z,76.13
2018-12-20T16:08:13.705Z,75.98
2018-12-20T16:10:43.832Z,75.72
2018-12-20T16:13:13.751Z,76.70
2018-12-20T16:15:44.862Z,76.80
2018-12-20T16:18:15.058Z,78.13
2018-12-20T16:20:45.482Z,77.70
2018-12-20T16:23:16.442Z,78.62
2018-12-20T16:25:47.107Z,79.29
2018-12-20T16:28:17.345Z,79.56
2018-12-20T16:30:47.479Z,79.69
2018-12-20T16:33:17.625Z,81.12
2018-12-20T16:35:47.536Z,83.07
2018-12-20T16:38:17.448Z,82.43
2018-12-20T16:40:47.717Z,82.78
2018-12-20T16:43:17.786Z,82.79
2018-12-20T16:45:47.863Z,82.32
2018-12-20T16:48:22.403Z,82.57
2018-12-20T16:50:53.347Z,83.69
2018-12-20T16:53:24.687Z,83.08
2018-12-20T16:55:54.979Z,84.69
2018-12-20T16:58:25.204Z,84.11
2018-12-20T17:00:55.984Z,85.45
2018-12-20T17:03:26.383Z,84.96
2018-12-20T17:05:56.448Z,85.49
2018-12-20T17:08:27.030Z,84.83
2018-12-20T17:10:58.628Z,86.33
2018-12-20T17:13:28.828Z,86.67
2018-12-20T17:15:58.792Z,86.02
2018-12-20T17:18:28.707Z,86.23
2018-12-20T17:20:58.598Z,85.87
2018-12-20T17:23:35.632Z,86.44
2018-12-20T17:26:00.635Z,86.03
2018-12-20T17:28:30.629Z,85.93
2018-12-20T17:31:00.488Z,86.17
2018-12-20T17:33:30.389Z,85.35
2018-12-20T17:36:00.485Z,85.65
2018-12-20T17:38:30.420Z,85.99
2018-12-20T17:41:00.480Z,85.40
2018-12-20T17:43:30.636Z,86.80
2018-12-20T17:46:00.611Z,87.00
2018-12-20T17:48:31.128Z,86.95
2018-12-20T17:51:02.233Z,86.28
2018-12-20T17:53:32.457Z,87.18
2018-12-20T17:56:02.550Z,86.60
2018-12-20T17:58:33.132Z,87.26
2018-12-20T18:01:03.363Z,86.51
2018-12-20T18:03:33.240Z,86.83
2018-12-20T18:06:03.604Z,86.77
2018-12-20T18:08:33.608Z,86.53
2018-12-20T18:11:03.503Z,86.20
2018-12-20T18:13:33.465Z,86.56
2018-12-20T18:16:03.566Z,86.74
2018-12-20T18:18:33.995Z,85.65
2018-12-20T18:21:04.319Z,85.48
2018-12-20T18:23:34.192Z,85.62
2018-12-20T18:26:05.509Z,86.06
2018-12-20T18:28:35.814Z,85.54
2018-12-20T18:31:06.033Z,85.27
2018-12-20T18:33:36.554Z,85.28
2018-12-20T18:36:08.116Z,85.15
2018-12-20T18:38:38.382Z,84.86
2018-12-20T18:41:08.557Z,85.46
2018-12-20T18:43:38.506Z,85.04
2018-12-20T18:46:08.751Z,84.92
2018-12-20T18:48:38.696Z,84.83
2018-12-20T18:51:08.552Z,84.67
2018-12-20T18:53:38.563Z,84.79
2018-12-20T18:56:08.584Z,85.33
2018-12-20T18:58:38.480Z,84.65
2018-12-20T19:01:08.535Z,84.78
2018-12-20T19:03:38.673Z,84.32
2018-12-20T19:06:08.679Z,84.82
2018-12-20T19:08:38.622Z,84.28
2018-12-20T19:11:08.635Z,83.72
2018-12-20T19:13:38.733Z,83.41
2018-12-20T19:16:08.984Z,83.50
2018-12-20T19:18:39.247Z,83.01
2018-12-20T19:21:09.688Z,83.00
2018-12-20T19:23:39.629Z,82.97
2018-12-20T19:26:09.696Z,83.11
2018-12-20T19:28:40.331Z,83.14
2018-12-20T19:31:10.677Z,83.54
2018-12-20T19:33:40.804Z,83.14
2018-12-20T19:36:11.378Z,83.65
2018-12-20T19:38:41.948Z,83.01
2018-12-20T19:41:13.150Z,82.78
2018-12-20T19:43:43.346Z,82.52
2018-12-20T19:46:14.272Z,82.37
2018-12-20T19:48:44.328Z,82.84
2018-12-20T19:51:15.356Z,83.23
2018-12-20T19:53:45.396Z,83.14
2018-12-20T19:56:20.107Z,82.95
2018-12-20T19:58:50.192Z,83.01
2018-12-20T20:01:20.649Z,83.32
2018-12-20T20:03:50.580Z,83.60
2018-12-20T20:06:21.307Z,83.60
2018-12-20T20:08:51.429Z,83.48
2018-12-20T20:11:21.498Z,82.72
2018-12-20T20:13:52.035Z,83.12
2018-12-20T20:16:22.599Z,83.11
2018-12-20T20:18:52.825Z,83.35
2018-12-20T20:21:24.178Z,83.37
2018-12-20T20:23:54.555Z,83.30
2018-12-20T20:26:24.436Z,83.51
2018-12-20T20:28:54.956Z,83.50
2018-12-20T20:31:25.695Z,83.84
2018-12-20T20:33:55.604Z,84.22
2018-12-20T20:36:25.679Z,84.21
2018-12-20T20:39:01.993Z,83.67
2018-12-20T20:41:29.664Z,84.28
2018-12-20T20:44:00.620Z,83.89
2018-12-20T20:46:30.962Z,83.93
2018-12-20T20:49:01.277Z,84.30
2018-12-20T20:51:31.386Z,84.06
2018-12-20T20:54:01.362Z,84.22
2018-12-20T20:56:32.459Z,83.74
2018-12-20T20:59:02.855Z,84.52
2018-12-20T21:01:32.906Z,84.07
2018-12-20T21:04:03.705Z,83.99
2018-12-20T21:06:34.406Z,84.27
2018-12-20T21:09:07.222Z,84.43
2018-12-20T21:11:37.384Z,84.54
2018-12-20T21:14:07.409Z,84.77
2018-12-20T21:16:38.476Z,84.80
2018-12-20T21:19:08.475Z,88.34
2018-12-20T21:21:40.181Z,99.13
2018-12-20T21:24:10.607Z,86.46
2018-12-20T21:26:40.598Z,83.17
2018-12-20T21:29:10.559Z,83.25
2018-12-20T21:31:40.739Z,88.33
2018-12-20T21:34:10.711Z,92.47
2018-12-20T21:36:40.731Z,85.62
2018-12-20T21:39:10.638Z,82.14
2018-12-20T21:44:27.116Z,82.11
2018-12-20T21:46:58.664Z,82.77
2018-12-20T21:49:28.769Z,83.28
2018-12-20T21:51:58.678Z,83.59
2018-12-20T21:54:28.735Z,84.08
2018-12-20T21:56:58.668Z,85.06
2018-12-20T21:59:28.707Z,85.59
2018-12-20T22:01:59.659Z,85.98
2018-12-20T22:04:29.529Z,85.91
2018-12-20T22:06:59.530Z,85.77
2018-12-20T22:09:29.615Z,86.94
2018-12-20T22:11:59.678Z,86.66
2018-12-20T22:14:29.610Z,87.23
2018-12-20T22:16:59.665Z,87.07
2018-12-20T22:19:30.098Z,86.76
2018-12-20T22:22:00.319Z,87.06
2018-12-20T22:24:30.237Z,87.29
2018-12-20T22:27:00.714Z,87.31
2018-12-20T22:29:30.708Z,86.48
2018-12-20T22:32:11.463Z,86.67
2018-12-20T22:34:41.625Z,87.11
2018-12-20T22:37:11.516Z,87.38
2018-12-20T22:39:41.439Z,86.69
2018-12-20T22:42:11.860Z,87.11
2018-12-20T22:44:41.874Z,87.31
2018-12-20T22:47:12.168Z,87.74
2018-12-20T22:49:42.696Z,87.83
2018-12-20T22:52:12.669Z,87.22
2018-12-20T22:54:42.706Z,87.43
2018-12-20T22:57:15.240Z,88.21
2018-12-20T22:59:45.494Z,87.89
2018-12-20T23:02:18.210Z,88.30
2018-12-20T23:04:47.513Z,88.47
2018-12-20T23:07:17.475Z,88.85
2018-12-20T23:09:47.534Z,88.76
2018-12-20T23:12:18.101Z,88.33
2018-12-20T23:14:48.606Z,89.38
2018-12-20T23:17:18.793Z,88.65
2018-12-20T23:19:48.894Z,88.93
2018-12-20T23:22:19.189Z,89.43
2018-12-20T23:24:49.177Z,89.61
2018-12-20T23:27:19.293Z,89.83
2018-12-20T23:29:49.430Z,89.70
2018-12-20T23:32:19.351Z,89.29
2018-12-20T23:34:50.383Z,89.57
2018-12-20T23:37:20.379Z,89.47
2018-12-20T23:39:50.489Z,89.10
2018-12-20T23:42:20.643Z,89.47
2018-12-20T23:44:50.563Z,89.56
2018-12-20T23:47:20.553Z,90.45
2018-12-20T23:49:51.295Z,90.72
2018-12-20T23:52:22.744Z,89.80
2018-12-20T23:54:52.804Z,90.56
2018-12-20T23:57:22.642Z,89.89
2018-12-20T23:59:52.617Z,89.79
